createdAt,value
2023-10-17T00:01:20.044Z,6.23
2023-10-17T00:03:48.451Z,6.03
2023-10-17T00:06:18.316Z,8.63
2023-10-17T00:08:52.468Z,5.43
2023-10-17T00:11:22.569Z,9.10
2023-10-17T00:14:08.960Z,6.57
2023-10-17T00:16:38.476Z,6.17
2023-10-17T00:19:11.208Z,11.27
2023-10-17T00:21:40.780Z,6.53
2023-10-17T00:24:11.233Z,7.23
2023-10-17T00:26:40.159Z,6.50
2023-10-17T00:29:10.099Z,5.30
2023-10-17T00:31:38.974Z,5.40
2023-10-17T00:34:14.326Z,9.93
2023-10-17T00:36:49.228Z,4.57
2023-10-17T00:39:24.406Z,6.67
2023-10-17T00:41:53.877Z,7.10
2023-10-17T00:44:31.564Z,4.53
2023-10-17T00:46:59.980Z,10.37
2023-10-17T00:49:30.231Z,7.53
2023-10-17T00:52:00.476Z,8.57
2023-10-17T00:54:30.937Z,6.60
2023-10-17T00:57:01.382Z,3.63
2023-10-17T00:59:31.548Z,5.70
2023-10-17T01:01:59.758Z,7.57
2023-10-17T01:04:30.309Z,7.10
2023-10-17T01:07:06.890Z,7.13
2023-10-17T01:09:36.562Z,6.47
2023-10-17T01:12:10.252Z,8.80
2023-10-17T01:14:39.076Z,6.50
2023-10-17T01:17:08.989Z,7.20
2023-10-17T01:19:37.534Z,6.37
2023-10-17T01:22:05.758Z,4.37
2023-10-17T01:24:35.988Z,3.63
2023-10-17T01:27:07.420Z,5.10
2023-10-17T01:29:35.784Z,5.87
2023-10-17T01:32:04.243Z,6.27
2023-10-17T01:34:32.755Z,6.57
2023-10-17T01:37:00.986Z,7.83
2023-10-17T01:39:30.708Z,7.70
2023-10-17T01:42:00.620Z,7.00
2023-10-17T01:44:29.804Z,10.57
2023-10-17T01:46:58.134Z,5.33
2023-10-17T01:49:28.911Z,5.60
2023-10-17T01:51:58.746Z,8.30
2023-10-17T01:54:30.544Z,8.93
2023-10-17T01:57:08.378Z,6.07
2023-10-17T01:59:37.305Z,5.80
2023-10-17T02:02:05.884Z,9.27
2023-10-17T02:04:36.866Z,4.47
2023-10-17T02:07:05.621Z,4.67
2023-10-17T02:09:49.641Z,6.67
2023-10-17T02:12:21.206Z,4.80
2023-10-17T02:14:49.435Z,6.47
2023-10-17T02:17:19.429Z,8.90
2023-10-17T02:19:48.802Z,7.20
2023-10-17T02:22:17.943Z,6.23
2023-10-17T02:24:46.227Z,4.97
2023-10-17T02:27:15.060Z,8.63
2023-10-17T02:29:47.537Z,5.80
2023-10-17T02:32:19.667Z,7.63
2023-10-17T02:34:48.427Z,7.17
2023-10-17T02:37:19.192Z,5.03
2023-10-17T02:39:47.332Z,7.13
2023-10-17T02:42:16.878Z,5.03
2023-10-17T02:44:46.924Z,6.93
2023-10-17T02:47:16.608Z,5.03
2023-10-17T02:49:47.135Z,5.17
2023-10-17T02:52:18.748Z,5.10
2023-10-17T02:55:01.346Z,6.67
2023-10-17T02:57:34.579Z,5.03
2023-10-17T03:00:22.663Z,6.93
2023-10-17T03:02:51.681Z,4.17
2023-10-17T03:05:20.489Z,8.60
2023-10-17T03:07:51.831Z,5.03
2023-10-17T03:10:37.866Z,8.70
2023-10-17T03:13:06.904Z,3.93
2023-10-17T03:15:41.417Z,6.13
2023-10-17T03:18:16.650Z,4.63
2023-10-17T03:20:51.669Z,6.53
2023-10-17T03:23:19.452Z,7.93
2023-10-17T03:25:48.398Z,5.70
2023-10-17T03:28:17.414Z,7.00
2023-10-17T03:30:49.211Z,4.10
2023-10-17T03:33:27.335Z,6.07
2023-10-17T03:36:06.567Z,6.33
2023-10-17T03:38:35.003Z,4.90
2023-10-17T03:41:05.308Z,5.33
2023-10-17T03:43:39.447Z,5.50
2023-10-17T03:46:09.183Z,5.20
2023-10-17T03:48:38.832Z,3.53
2023-10-17T03:51:11.662Z,4.53
2023-10-17T03:53:48.469Z,5.43
2023-10-17T03:56:24.783Z,3.77
2023-10-17T03:58:58.460Z,4.83
2023-10-17T04:01:28.634Z,6.03
2023-10-17T04:03:58.147Z,6.30
2023-10-17T04:06:35.839Z,6.00
2023-10-17T04:09:24.808Z,3.73
2023-10-17T04:11:56.549Z,7.67
2023-10-17T04:14:30.908Z,7.13
2023-10-17T04:17:03.654Z,6.03
2023-10-17T04:19:33.834Z,3.57
2023-10-17T04:22:20.705Z,5.30
2023-10-17T04:24:50.841Z,3.93
2023-10-17T04:27:24.013Z,5.17
2023-10-17T04:29:52.644Z,4.53
2023-10-17T04:32:22.252Z,3.57
2023-10-17T04:34:50.684Z,5.33
2023-10-17T04:37:25.596Z,4.57
2023-10-17T04:39:58.408Z,5.70
2023-10-17T04:42:48.098Z,7.17
2023-10-17T04:45:15.479Z,4.00
2023-10-17T04:47:47.237Z,6.83
2023-10-17T04:50:14.872Z,3.93
2023-10-17T04:52:45.360Z,5.60
2023-10-17T04:55:19.837Z,4.17
2023-10-17T04:57:57.431Z,4.13
2023-10-17T05:00:44.898Z,7.97
2023-10-17T05:03:28.188Z,4.73
2023-10-17T05:06:16.900Z,3.70
2023-10-17T05:09:02.019Z,5.40
2023-10-17T05:11:48.479Z,4.93
2023-10-17T05:14:42.682Z,8.10
2023-10-17T05:17:28.966Z,6.03
2023-10-17T05:20:16.109Z,4.93
2023-10-17T05:23:02.179Z,5.07
2023-10-17T05:25:48.359Z,8.83
2023-10-17T05:28:34.093Z,7.30
2023-10-17T05:31:25.843Z,7.77
2023-10-17T05:34:11.550Z,9.20
2023-10-17T05:36:58.818Z,5.33
2023-10-17T05:39:44.713Z,11.87
2023-10-17T05:42:35.898Z,5.37
2023-10-17T05:45:21.758Z,6.37
2023-10-17T05:48:13.157Z,7.07
2023-10-17T05:50:59.135Z,6.80
2023-10-17T05:53:46.234Z,6.53
2023-10-17T05:56:32.027Z,9.53
2023-10-17T05:59:17.988Z,5.83
2023-10-17T06:02:04.076Z,5.07
2023-10-17T06:04:50.211Z,6.90
2023-10-17T06:07:36.304Z,5.83
2023-10-17T06:10:24.106Z,6.80
2023-10-17T06:13:10.002Z,7.43
2023-10-17T06:15:56.441Z,6.90
2023-10-17T06:18:28.012Z,6.47
2023-10-17T06:21:08.313Z,4.67
2023-10-17T06:24:00.319Z,7.47
2023-10-17T06:26:55.815Z,4.70
2023-10-17T06:29:43.786Z,5.60
2023-10-17T06:32:37.845Z,7.90
2023-10-17T06:35:14.977Z,5.03
2023-10-17T06:37:44.423Z,5.00
2023-10-17T06:40:16.769Z,5.93
2023-10-17T06:42:50.332Z,4.53
2023-10-17T06:45:20.603Z,5.37
2023-10-17T06:47:57.772Z,7.00
2023-10-17T06:50:43.853Z,7.63
2023-10-17T06:53:16.281Z,4.87
2023-10-17T06:55:45.809Z,5.43
2023-10-17T06:58:16.253Z,5.10
2023-10-17T07:00:51.213Z,7.13
2023-10-17T07:03:26.344Z,4.93
2023-10-17T07:05:56.649Z,5.37
2023-10-17T07:08:31.741Z,4.60
2023-10-17T07:11:07.033Z,5.57
2023-10-17T07:13:55.855Z,6.60
2023-10-17T07:16:28.288Z,8.37
2023-10-17T07:19:10.898Z,6.40
2023-10-17T07:21:56.652Z,8.23
2023-10-17T07:24:25.730Z,6.50
2023-10-17T07:26:55.123Z,6.70
2023-10-17T07:29:25.128Z,5.50
2023-10-17T07:31:55.159Z,4.87
2023-10-17T07:34:24.067Z,6.80
2023-10-17T07:36:56.676Z,3.90
2023-10-17T07:39:25.843Z,5.77
2023-10-17T07:41:55.383Z,3.80
2023-10-17T07:44:26.741Z,6.50
2023-10-17T07:47:09.553Z,5.20
2023-10-17T07:49:37.927Z,5.77
2023-10-17T07:52:11.640Z,3.30
2023-10-17T07:54:46.686Z,6.87
2023-10-17T07:57:22.163Z,6.53
2023-10-17T07:59:53.223Z,4.87
2023-10-17T08:02:22.002Z,4.77
2023-10-17T08:04:50.928Z,6.97
2023-10-17T08:07:22.006Z,5.60
2023-10-17T08:09:57.608Z,5.33
2023-10-17T08:12:30.654Z,7.07
2023-10-17T08:15:00.786Z,8.17
2023-10-17T08:17:29.818Z,6.53
2023-10-17T08:20:31.153Z,8.63
2023-10-17T08:23:07.772Z,6.57
2023-10-17T08:25:41.744Z,7.37
2023-10-17T08:28:31.116Z,9.20
2023-10-17T08:31:19.072Z,6.87
2023-10-17T08:33:51.729Z,11.07
2023-10-17T08:36:24.726Z,11.63
2023-10-17T08:38:55.823Z,9.73
2023-10-17T08:41:26.695Z,8.03
2023-10-17T08:43:57.066Z,11.03
2023-10-17T08:46:27.131Z,13.30
2023-10-17T08:48:57.822Z,8.33
2023-10-17T08:51:29.499Z,10.67
2023-10-17T08:53:58.077Z,9.83
2023-10-17T08:56:30.205Z,8.53
2023-10-17T08:59:04.833Z,7.83
2023-10-17T09:01:38.137Z,12.63
2023-10-17T09:04:09.053Z,9.63
2023-10-17T09:06:49.861Z,8.07
2023-10-17T09:09:22.671Z,9.93
2023-10-17T09:12:05.027Z,9.27
2023-10-17T09:14:39.840Z,8.07
2023-10-17T09:17:17.261Z,9.33
2023-10-17T09:19:53.129Z,9.83
2023-10-17T09:22:39.244Z,9.20
2023-10-17T09:25:24.354Z,12.27
2023-10-17T09:27:53.688Z,8.13
2023-10-17T09:30:24.809Z,9.73
2023-10-17T09:32:54.950Z,8.73
2023-10-17T09:35:23.362Z,10.57
2023-10-17T09:37:52.726Z,10.23
2023-10-17T09:40:28.365Z,8.93
2023-10-17T09:42:56.564Z,9.73
2023-10-17T09:45:34.697Z,12.13
2023-10-17T09:48:08.039Z,10.57
2023-10-17T09:50:38.232Z,10.43
2023-10-17T09:53:13.704Z,11.00
2023-10-17T09:55:45.781Z,11.37
2023-10-17T09:58:15.357Z,7.83
2023-10-17T10:00:48.269Z,10.33
2023-10-17T10:03:18.528Z,13.10
2023-10-17T10:05:46.816Z,11.93
2023-10-17T10:08:33.478Z,9.80
2023-10-17T10:11:01.913Z,8.17
2023-10-17T10:13:32.568Z,7.07
2023-10-17T10:16:02.650Z,9.00
2023-10-17T10:18:50.978Z,6.80
2023-10-17T10:21:22.198Z,6.67
2023-10-17T10:23:51.553Z,6.50
2023-10-17T10:26:20.487Z,9.17
2023-10-17T10:28:48.938Z,6.53
2023-10-17T10:31:32.727Z,7.13
2023-10-17T10:34:00.958Z,8.37
2023-10-17T10:36:30.556Z,5.53
2023-10-17T10:39:13.861Z,6.23
2023-10-17T10:41:57.131Z,6.77
2023-10-17T10:44:26.616Z,5.50
2023-10-17T10:46:55.148Z,4.43
2023-10-17T10:49:29.464Z,4.23
2023-10-17T10:52:00.117Z,7.33
2023-10-17T10:54:48.386Z,7.57
2023-10-17T10:57:18.220Z,4.83
2023-10-17T10:59:53.090Z,6.30
2023-10-17T11:02:21.448Z,4.07
2023-10-17T11:04:49.940Z,5.13
2023-10-17T11:07:23.369Z,4.77
2023-10-17T11:10:04.163Z,7.03
2023-10-17T11:12:32.487Z,5.33
2023-10-17T11:15:12.323Z,4.10
2023-10-17T11:17:41.544Z,4.43
2023-10-17T11:20:15.816Z,4.77
2023-10-17T11:22:46.254Z,7.03
2023-10-17T11:25:22.849Z,4.97
2023-10-17T11:27:54.724Z,5.63
2023-10-17T11:30:33.805Z,4.67
2023-10-17T11:33:04.034Z,4.00
2023-10-17T11:35:32.241Z,4.13
2023-10-17T11:38:08.186Z,4.10
2023-10-17T11:40:44.884Z,4.40
2023-10-17T11:43:17.348Z,4.53
2023-10-17T11:45:45.665Z,6.20
2023-10-17T11:48:28.882Z,4.40
2023-10-17T11:51:14.092Z,3.37
2023-10-17T11:54:01.055Z,4.50
2023-10-17T11:56:30.766Z,4.20
2023-10-17T11:58:58.997Z,3.53
2023-10-17T12:01:27.232Z,3.27
2023-10-17T12:03:58.236Z,5.23
2023-10-17T12:06:28.509Z,4.50
2023-10-17T12:08:57.153Z,5.13
2023-10-17T12:11:26.559Z,3.80
2023-10-17T12:13:56.329Z,4.33
2023-10-17T12:16:25.521Z,2.97
2023-10-17T12:18:54.498Z,3.80
2023-10-17T12:21:22.757Z,5.13
2023-10-17T12:23:52.058Z,3.53
2023-10-17T12:26:27.920Z,4.27
2023-10-17T12:28:58.097Z,3.83
2023-10-17T12:31:26.740Z,5.60
2023-10-17T12:33:55.030Z,4.23
2023-10-17T12:36:24.089Z,4.57
2023-10-17T12:38:53.211Z,4.60
2023-10-17T12:41:21.467Z,4.23
2023-10-17T12:43:49.720Z,2.73
2023-10-17T12:46:19.370Z,5.17
2023-10-17T12:48:47.919Z,3.93
2023-10-17T12:51:16.274Z,5.90
2023-10-17T12:53:47.939Z,4.13
2023-10-17T12:56:16.345Z,4.17
2023-10-17T12:58:45.507Z,4.20
2023-10-17T13:01:14.024Z,3.00
2023-10-17T13:03:44.283Z,6.10
2023-10-17T13:06:15.068Z,4.47
2023-10-17T13:08:43.401Z,3.30
2023-10-17T13:11:11.585Z,3.53
2023-10-17T13:13:40.274Z,4.03
2023-10-17T13:16:13.285Z,4.23
2023-10-17T13:18:42.311Z,4.10
2023-10-17T13:21:14.742Z,3.13
2023-10-17T13:23:43.280Z,5.47
2023-10-17T13:26:12.827Z,3.60
2023-10-17T13:28:41.134Z,4.37
2023-10-17T13:31:12.757Z,3.57
2023-10-17T13:33:41.120Z,3.07
2023-10-17T13:36:11.162Z,3.93
2023-10-17T13:38:41.467Z,4.60
2023-10-17T13:41:11.132Z,5.30
2023-10-17T13:43:40.432Z,4.60
2023-10-17T13:46:10.354Z,3.07
2023-10-17T13:48:39.136Z,3.30
2023-10-17T13:51:07.997Z,4.57
2023-10-17T13:53:37.759Z,4.27
2023-10-17T13:56:13.721Z,3.20
2023-10-17T13:58:43.007Z,4.10
2023-10-17T14:01:25.603Z,5.03
2023-10-17T14:03:54.107Z,4.20
2023-10-17T14:06:22.449Z,3.00
2023-10-17T14:08:51.196Z,3.20
2023-10-17T14:11:20.730Z,3.60
2023-10-17T14:13:50.485Z,4.50
2023-10-17T14:16:23.261Z,3.27
2023-10-17T14:19:05.292Z,4.30
2023-10-17T14:21:37.486Z,4.67
2023-10-17T14:24:11.794Z,3.10
2023-10-17T14:26:41.748Z,4.17
2023-10-17T14:29:08.991Z,4.57
2023-10-17T14:31:37.763Z,4.53
2023-10-17T14:34:10.421Z,4.13
2023-10-17T14:36:38.992Z,4.60
2023-10-17T14:39:10.764Z,3.43
2023-10-17T14:41:41.288Z,5.60
2023-10-17T14:44:11.068Z,4.80
2023-10-17T14:46:39.283Z,4.53
2023-10-17T14:49:07.612Z,4.13
2023-10-17T14:51:35.798Z,4.80
2023-10-17T14:54:09.333Z,3.83
2023-10-17T14:56:38.246Z,4.60
2023-10-17T14:59:06.474Z,4.77
2023-10-17T15:01:36.344Z,5.77
2023-10-17T15:04:05.060Z,4.60
2023-10-17T15:06:33.664Z,5.07
2023-10-17T15:09:01.892Z,5.43
2023-10-17T15:11:30.194Z,3.90
2023-10-17T15:13:58.383Z,5.53
2023-10-17T15:16:26.674Z,4.93
2023-10-17T15:18:56.461Z,4.73
2023-10-17T15:21:24.783Z,5.57
2023-10-17T15:23:53.222Z,3.53
2023-10-17T15:26:22.589Z,5.13
2023-10-17T15:28:51.664Z,4.43
2023-10-17T15:31:20.149Z,3.53
2023-10-17T15:33:48.501Z,3.13
2023-10-17T15:36:28.150Z,3.30
2023-10-17T15:38:57.519Z,3.07
2023-10-17T15:41:25.938Z,3.17
2023-10-17T15:43:54.089Z,4.27
2023-10-17T15:46:25.181Z,5.13
2023-10-17T15:48:55.271Z,4.10
2023-10-17T15:51:27.803Z,3.90
2023-10-17T15:53:56.105Z,6.07
2023-10-17T15:56:29.535Z,3.60
2023-10-17T15:58:58.176Z,2.77
2023-10-17T16:01:26.357Z,3.37
2023-10-17T16:03:55.889Z,2.97
2023-10-17T16:06:25.864Z,5.07
2023-10-17T16:08:54.208Z,3.33
2023-10-17T16:11:22.972Z,3.73
2023-10-17T16:13:51.274Z,3.60
2023-10-17T16:16:20.186Z,4.93
2023-10-17T16:18:48.708Z,3.13
2023-10-17T16:21:19.144Z,6.77
2023-10-17T16:23:51.320Z,3.30
2023-10-17T16:26:19.574Z,4.33
2023-10-17T16:28:48.131Z,4.10
2023-10-17T16:31:17.010Z,6.60
2023-10-17T16:33:45.606Z,3.70
2023-10-17T16:36:13.856Z,4.13
2023-10-17T16:38:47.194Z,3.33
2023-10-17T16:41:16.948Z,4.27
2023-10-17T16:43:45.115Z,4.47
2023-10-17T16:46:14.735Z,4.73
2023-10-17T16:48:43.111Z,3.43
2023-10-17T16:51:11.346Z,4.77
2023-10-17T16:53:39.728Z,5.07
2023-10-17T16:56:08.673Z,4.73
2023-10-17T16:58:45.901Z,4.60
2023-10-17T17:01:14.301Z,5.07
2023-10-17T17:03:42.631Z,5.93
2023-10-17T17:06:11.227Z,6.07
2023-10-17T17:08:40.005Z,5.00
2023-10-17T17:11:08.437Z,5.17
2023-10-17T17:13:36.811Z,5.50
2023-10-17T17:16:08.529Z,4.17
2023-10-17T17:18:47.116Z,3.90
2023-10-17T17:21:15.853Z,5.10
2023-10-17T17:23:44.089Z,5.53
2023-10-17T17:26:16.873Z,5.00
2023-10-17T17:28:45.172Z,5.37
2023-10-17T17:31:14.851Z,5.57
2023-10-17T17:33:43.775Z,4.20
2023-10-17T17:36:12.248Z,4.40
2023-10-17T17:38:41.487Z,3.97
2023-10-17T17:41:09.662Z,3.83
2023-10-17T17:43:37.889Z,6.10
2023-10-17T17:46:07.176Z,4.47
2023-10-17T17:48:37.141Z,4.40
2023-10-17T17:51:05.482Z,4.93
2023-10-17T17:53:34.010Z,5.10
2023-10-17T17:56:02.522Z,4.80
2023-10-17T17:58:31.811Z,5.60
2023-10-17T18:01:01.072Z,5.90
2023-10-17T18:03:29.848Z,3.87
2023-10-17T18:05:59.604Z,5.03
2023-10-17T18:08:28.374Z,4.93
2023-10-17T18:10:57.296Z,5.07
2023-10-17T18:13:25.542Z,6.17
2023-10-17T18:15:55.409Z,6.13
2023-10-17T18:18:23.850Z,5.10
2023-10-17T18:21:03.062Z,3.33
2023-10-17T18:23:31.437Z,6.07
2023-10-17T18:26:00.306Z,5.93
2023-10-17T18:28:28.536Z,8.63
2023-10-17T18:31:07.615Z,5.47
2023-10-17T18:33:36.270Z,4.97
2023-10-17T18:36:06.074Z,4.60
2023-10-17T18:38:34.304Z,5.60
2023-10-17T18:41:01.548Z,4.80
2023-10-17T18:43:30.084Z,5.53
2023-10-17T18:45:58.740Z,6.77
2023-10-17T18:48:27.371Z,4.93
2023-10-17T18:51:02.593Z,3.93
2023-10-17T18:53:33.120Z,5.53
2023-10-17T18:56:01.808Z,4.97
2023-10-17T18:58:30.156Z,4.27
2023-10-17T19:01:13.144Z,4.73
2023-10-17T19:03:43.146Z,5.50
2023-10-17T19:06:12.641Z,4.37
2023-10-17T19:08:43.598Z,6.87
2023-10-17T19:11:13.178Z,7.00
2023-10-17T19:13:42.381Z,6.20
2023-10-17T19:16:11.898Z,5.43
2023-10-17T19:18:41.404Z,7.80
2023-10-17T19:21:12.670Z,4.93
2023-10-17T19:23:44.925Z,5.57
2023-10-17T19:26:14.700Z,5.67
2023-10-17T19:28:44.108Z,4.27
2023-10-17T19:31:12.986Z,6.67
2023-10-17T19:33:41.793Z,5.43
2023-10-17T19:36:10.587Z,6.97
2023-10-17T19:38:38.914Z,6.20
2023-10-17T19:41:08.510Z,6.37
2023-10-17T19:43:36.689Z,7.67
2023-10-17T19:46:05.012Z,5.37
2023-10-17T19:48:33.542Z,6.77
2023-10-17T19:51:02.056Z,6.93
2023-10-17T19:53:30.728Z,6.60
2023-10-17T19:55:58.954Z,5.00
2023-10-17T19:58:28.539Z,9.07
2023-10-17T20:00:56.699Z,5.93
2023-10-17T20:03:24.971Z,8.80
2023-10-17T20:05:53.465Z,8.37
2023-10-17T20:08:22.367Z,7.10
2023-10-17T20:10:50.629Z,7.07
2023-10-17T20:13:19.736Z,8.13
2023-10-17T20:15:49.596Z,6.93
2023-10-17T20:18:17.796Z,6.80
2023-10-17T20:20:47.548Z,6.20
2023-10-17T20:23:16.560Z,7.70
2023-10-17T20:25:44.719Z,7.57
2023-10-17T20:28:12.964Z,6.37
2023-10-17T20:30:44.061Z,6.73
2023-10-17T20:33:13.782Z,9.67
2023-10-17T20:35:42.165Z,9.23
2023-10-17T20:38:11.145Z,11.63
2023-10-17T20:40:40.689Z,7.33
2023-10-17T20:43:09.493Z,12.00
2023-10-17T20:45:38.017Z,8.00
2023-10-17T20:48:06.727Z,8.17
2023-10-17T20:50:36.342Z,8.47
2023-10-17T20:53:05.739Z,8.53
2023-10-17T20:55:35.395Z,9.27
2023-10-17T20:58:04.693Z,11.00
2023-10-17T21:00:33.139Z,7.57
2023-10-17T21:03:01.616Z,11.97
2023-10-17T21:05:29.847Z,8.27
2023-10-17T21:07:59.398Z,11.53
2023-10-17T21:10:27.710Z,11.17
2023-10-17T21:12:55.993Z,8.60
2023-10-17T21:15:26.029Z,9.23
2023-10-17T21:17:54.785Z,11.03
2023-10-17T21:20:23.433Z,9.20
2023-10-17T21:22:54.087Z,10.67
2023-10-17T21:25:23.770Z,9.63
2023-10-17T21:27:52.306Z,9.60
2023-10-17T21:30:21.127Z,11.33
2023-10-17T21:32:49.391Z,10.37
2023-10-17T21:35:19.540Z,8.73
2023-10-17T21:40:18.903Z,9.10
2023-10-17T21:42:49.050Z,8.93
2023-10-17T21:45:17.482Z,8.60
2023-10-17T21:47:46.215Z,10.17
2023-10-17T21:50:15.064Z,10.20
2023-10-17T21:52:43.393Z,8.97
2023-10-17T21:55:14.574Z,11.30
2023-10-17T21:57:44.720Z,8.77
2023-10-17T22:00:23.797Z,9.57
2023-10-17T22:02:52.059Z,8.57
2023-10-17T22:05:21.662Z,9.90
2023-10-17T22:07:49.937Z,10.00
2023-10-17T22:10:19.810Z,11.33
2023-10-17T22:12:50.757Z,9.73
2023-10-17T22:15:20.495Z,10.03
2023-10-17T22:17:48.844Z,9.40
2023-10-17T22:20:17.073Z,10.43
2023-10-17T22:22:45.630Z,9.30
2023-10-17T22:25:13.841Z,11.33
2023-10-17T22:27:42.120Z,9.67
2023-10-17T22:30:11.429Z,12.13
2023-10-17T22:32:41.246Z,9.47
2023-10-17T22:35:10.324Z,10.30
2023-10-17T22:37:38.587Z,10.00
2023-10-17T22:40:07.677Z,11.57
2023-10-17T22:42:38.467Z,10.33
2023-10-17T22:45:07.905Z,12.60
2023-10-17T22:47:38.692Z,11.90
2023-10-17T22:50:09.999Z,10.57
2023-10-17T22:52:38.323Z,11.33
2023-10-17T22:55:06.921Z,10.20
2023-10-17T22:57:35.226Z,14.27
2023-10-17T23:00:07.568Z,10.73
2023-10-17T23:02:35.962Z,9.80
2023-10-17T23:05:05.392Z,10.63
2023-10-17T23:07:34.981Z,12.00
2023-10-17T23:10:03.702Z,10.57
2023-10-17T23:12:31.965Z,11.53
2023-10-17T23:15:00.271Z,14.03
2023-10-17T23:17:29.923Z,11.27
2023-10-17T23:19:58.800Z,12.50
2023-10-17T23:22:27.739Z,10.57
2023-10-17T23:24:57.316Z,10.87
2023-10-17T23:27:25.724Z,11.13
2023-10-17T23:29:54.721Z,11.87
2023-10-17T23:32:24.274Z,10.80
2023-10-17T23:34:52.922Z,10.63
2023-10-17T23:37:21.150Z,10.97
2023-10-17T23:39:49.581Z,10.80
2023-10-17T23:42:19.217Z,11.60
2023-10-17T23:44:48.536Z,11.00
2023-10-17T23:47:17.848Z,10.83
2023-10-17T23:49:46.140Z,11.67
2023-10-17T23:52:14.383Z,11.60
2023-10-17T23:54:43.286Z,10.30
2023-10-17T23:57:14.671Z,10.30
2023-10-17T23:59:46.165Z,11.77
